createdAt,value
2022-10-11T00:00:33.880Z,56.11
2022-10-11T00:03:02.675Z,56.10
2022-10-11T00:05:31.084Z,56.00
2022-10-11T00:07:59.205Z,56.32
2022-10-11T00:10:27.514Z,56.14
2022-10-11T00:12:55.284Z,55.90
2022-10-11T00:15:23.818Z,56.12
2022-10-11T00:17:52.903Z,56.35
2022-10-11T00:20:20.827Z,56.21
2022-10-11T00:22:49.691Z,56.05
2022-10-11T00:25:18.244Z,56.54
2022-10-11T00:27:46.438Z,56.59
2022-10-11T00:30:14.694Z,56.14
2022-10-11T00:32:42.635Z,56.05
2022-10-11T00:35:12.270Z,56.30
2022-10-11T00:37:40.443Z,56.19
2022-10-11T00:40:12.401Z,56.41
2022-10-11T00:42:40.093Z,56.34
2022-10-11T00:46:04.877Z,56.22
2022-10-11T00:48:40.965Z,56.33
2022-10-11T00:51:18.252Z,56.33
2022-10-11T00:53:48.613Z,56.06
2022-10-11T00:56:22.375Z,56.49
2022-10-11T00:58:50.484Z,56.40
2022-10-11T01:01:18.878Z,56.53
2022-10-11T01:03:48.874Z,56.38
2022-10-11T01:06:18.035Z,56.25
2022-10-11T01:08:46.406Z,56.36
2022-10-11T01:11:18.528Z,56.31
2022-10-11T01:13:56.630Z,56.62
2022-10-11T01:16:30.663Z,56.67
2022-10-11T01:19:12.612Z,56.60
2022-10-11T01:21:49.506Z,56.36
2022-10-11T01:24:34.515Z,56.76
2022-10-11T01:27:43.681Z,56.88
2022-10-11T01:30:27.521Z,56.58
2022-10-11T01:33:07.446Z,56.67
2022-10-11T01:35:41.269Z,56.78
2022-10-11T01:38:15.374Z,56.42
2022-10-11T01:40:50.655Z,56.63
2022-10-11T01:43:21.423Z,56.49
2022-10-11T01:45:53.035Z,56.76
2022-10-11T01:48:21.677Z,56.58
2022-10-11T01:50:51.407Z,56.69
2022-10-11T01:54:09.811Z,56.93
2022-10-11T01:56:54.934Z,56.66
2022-10-11T01:59:39.345Z,56.50
2022-10-11T02:02:17.269Z,56.71
2022-10-11T02:04:50.607Z,56.78
2022-10-11T02:07:24.099Z,57.08
2022-10-11T02:09:58.637Z,56.68
2022-10-11T02:12:33.392Z,56.61
2022-10-11T02:15:04.580Z,56.51
2022-10-11T02:17:41.147Z,56.75
2022-10-11T02:20:14.959Z,56.76
2022-10-11T02:22:47.536Z,56.56
2022-10-11T02:25:22.718Z,56.55
2022-10-11T02:27:53.539Z,56.59
2022-10-11T02:30:21.265Z,56.80
2022-10-11T02:32:52.978Z,56.50
2022-10-11T02:35:25.827Z,56.39
2022-10-11T02:38:00.513Z,56.57
2022-10-11T02:40:33.306Z,56.61
2022-10-11T02:43:05.887Z,56.52
2022-10-11T02:45:39.554Z,56.60
2022-10-11T02:48:12.183Z,56.70
2022-10-11T02:50:41.728Z,57.09
2022-10-11T02:53:09.976Z,57.05
2022-10-11T02:55:38.119Z,56.97
2022-10-11T02:58:06.318Z,56.92
2022-10-11T03:00:34.039Z,56.55
2022-10-11T03:03:03.426Z,57.18
2022-10-11T03:05:37.697Z,57.14
2022-10-11T03:08:05.891Z,56.83
2022-10-11T03:10:34.360Z,56.95
2022-10-11T03:13:02.840Z,56.93
2022-10-11T03:15:31.102Z,56.64
2022-10-11T03:17:59.435Z,56.91
2022-10-11T03:20:27.518Z,56.98
2022-10-11T03:22:57.131Z,57.19
2022-10-11T03:25:25.407Z,56.82
2022-10-11T03:27:53.512Z,56.61
2022-10-11T03:30:21.751Z,57.16
2022-10-11T03:32:49.878Z,56.79
2022-10-11T03:35:17.905Z,56.91
2022-10-11T03:37:46.578Z,57.29
2022-10-11T03:40:15.974Z,57.33
2022-10-11T03:42:43.674Z,57.29
2022-10-11T03:45:12.361Z,57.37
2022-10-11T03:47:41.503Z,57.31
2022-10-11T03:50:10.763Z,57.01
2022-10-11T03:52:39.056Z,57.06
2022-10-11T03:55:07.875Z,56.87
2022-10-11T03:57:37.010Z,57.31
2022-10-11T04:00:06.491Z,57.29
2022-10-11T04:02:38.968Z,57.21
2022-10-11T04:05:08.138Z,57.41
2022-10-11T04:07:36.475Z,57.26
2022-10-11T04:10:04.480Z,57.19
2022-10-11T04:12:32.693Z,57.13
2022-10-11T04:15:02.233Z,57.37
2022-10-11T04:17:29.873Z,57.17
2022-10-11T04:19:57.962Z,57.31
2022-10-11T04:22:26.570Z,57.34
2022-10-11T04:24:54.320Z,57.15
2022-10-11T04:27:22.693Z,57.28
2022-10-11T04:29:51.035Z,57.31
2022-10-11T04:32:20.100Z,57.40
2022-10-11T04:34:48.173Z,57.25
2022-10-11T04:37:15.921Z,57.17
2022-10-11T04:39:44.250Z,57.35
2022-10-11T04:42:11.962Z,57.31
2022-10-11T04:44:39.747Z,57.60
2022-10-11T04:47:08.847Z,57.50
2022-10-11T04:49:38.466Z,57.46
2022-10-11T04:52:06.325Z,57.36
2022-10-11T04:54:34.026Z,57.55
2022-10-11T04:57:02.090Z,57.73
2022-10-11T04:59:29.786Z,57.68
2022-10-11T05:01:57.922Z,57.45
2022-10-11T05:04:25.676Z,57.55
2022-10-11T05:06:55.233Z,57.41
2022-10-11T05:09:23.121Z,57.59
2022-10-11T05:11:51.273Z,57.66
2022-10-11T05:14:18.937Z,57.54
2022-10-11T05:16:47.114Z,57.33
2022-10-11T05:19:14.873Z,57.40
2022-10-11T05:21:42.580Z,57.28
2022-10-11T05:24:12.144Z,57.64
2022-10-11T05:26:40.246Z,57.46
2022-10-11T05:29:07.948Z,57.63
2022-10-11T05:31:36.063Z,57.57
2022-10-11T05:34:03.737Z,57.35
2022-10-11T05:36:31.527Z,57.81
2022-10-11T05:38:59.610Z,57.95
2022-10-11T05:41:29.188Z,57.74
2022-10-11T05:43:57.518Z,57.81
2022-10-11T05:46:25.214Z,57.75
2022-10-11T05:48:53.309Z,57.87
2022-10-11T05:51:20.976Z,57.79
2022-10-11T05:53:49.621Z,57.80
2022-10-11T05:56:21.822Z,58.03
2022-10-11T05:58:52.172Z,57.63
2022-10-11T06:01:22.659Z,57.66
2022-10-11T06:03:50.896Z,57.62
2022-10-11T06:06:19.230Z,58.12
2022-10-11T06:08:50.266Z,58.38
2022-10-11T06:11:21.265Z,58.33
2022-10-11T06:13:52.859Z,58.28
2022-10-11T06:16:21.676Z,57.95
2022-10-11T06:18:51.074Z,58.40
2022-10-11T06:21:19.265Z,58.25
2022-10-11T06:23:50.465Z,58.61
2022-10-11T06:26:18.931Z,58.35
2022-10-11T06:28:49.137Z,58.46
2022-10-11T06:31:21.747Z,58.60
2022-10-11T06:33:53.456Z,58.83
2022-10-11T06:36:29.187Z,58.55
2022-10-11T06:46:51.819Z,59.21
2022-10-11T06:49:23.359Z,59.43
2022-10-11T06:51:51.478Z,59.38
2022-10-11T06:54:19.653Z,59.54
2022-10-11T06:56:50.880Z,59.35
2022-10-11T06:59:21.058Z,59.50
2022-10-11T07:01:48.861Z,60.04
2022-10-11T07:04:20.485Z,60.17
2022-10-11T07:06:48.881Z,60.24
2022-10-11T07:09:18.288Z,60.37
2022-10-11T07:11:48.062Z,60.57
2022-10-11T07:14:16.415Z,60.59
2022-10-11T07:16:44.812Z,60.55
2022-10-11T07:19:14.413Z,60.58
2022-10-11T07:21:43.496Z,60.58
2022-10-11T07:24:12.674Z,60.67
2022-10-11T07:26:41.570Z,60.57
2022-10-11T07:29:11.809Z,60.89
2022-10-11T07:31:41.971Z,61.10
2022-10-11T07:34:12.413Z,60.91
2022-10-11T07:36:40.956Z,60.77
2022-10-11T07:39:11.121Z,60.96
2022-10-11T07:41:45.480Z,60.83
2022-10-11T07:44:15.604Z,61.19
2022-10-11T07:46:44.056Z,61.65
2022-10-11T07:49:12.314Z,61.20
2022-10-11T07:51:41.304Z,61.02
2022-10-11T07:54:11.010Z,61.35
2022-10-11T07:56:40.465Z,60.96
2022-10-11T07:59:09.013Z,61.63
2022-10-11T08:01:37.164Z,61.45
2022-10-11T08:04:05.927Z,61.66
2022-10-11T08:06:34.067Z,61.24
2022-10-11T08:09:03.021Z,61.39
2022-10-11T08:11:34.538Z,62.24
2022-10-11T08:14:05.061Z,62.39
2022-10-11T08:16:34.429Z,62.48
2022-10-11T08:19:03.544Z,62.21
2022-10-11T08:21:32.327Z,62.15
2022-10-11T08:24:01.475Z,62.63
2022-10-11T08:26:29.767Z,64.19
2022-10-11T08:29:02.370Z,64.66
2022-10-11T08:31:31.980Z,65.30
2022-10-11T08:34:00.094Z,64.97
2022-10-11T08:36:28.868Z,65.42
2022-10-11T08:38:56.934Z,64.62
2022-10-11T08:41:49.791Z,64.11
2022-10-11T08:45:05.906Z,63.72
2022-10-11T08:47:32.108Z,64.25
2022-10-11T08:50:02.094Z,62.83
2022-10-11T08:52:47.317Z,62.95
2022-10-11T08:55:22.777Z,61.72
2022-10-11T08:57:55.843Z,61.64
2022-10-11T09:00:29.218Z,61.88
2022-10-11T09:03:09.217Z,60.31
2022-10-11T09:05:54.781Z,60.21
2022-10-11T09:08:33.577Z,61.21
2022-10-11T09:11:11.033Z,59.90
2022-10-11T09:14:15.270Z,59.48
2022-10-11T09:16:59.813Z,60.28
2022-10-11T09:19:49.750Z,58.28
2022-10-11T09:22:30.838Z,58.16
2022-10-11T09:25:14.731Z,58.59
2022-10-11T09:28:02.295Z,58.88
2022-10-11T09:30:33.755Z,59.60
2022-10-11T09:33:15.024Z,59.19
2022-10-11T09:35:47.163Z,58.30
2022-10-11T09:38:25.416Z,58.26
2022-10-11T09:41:04.945Z,59.12
2022-10-11T09:43:33.372Z,57.67
2022-10-11T09:46:01.927Z,58.31
2022-10-11T09:48:40.014Z,56.66
2022-10-11T09:51:16.804Z,55.62
2022-10-11T09:53:55.780Z,55.78
2022-10-11T09:56:33.181Z,55.60
2022-10-11T09:59:24.957Z,55.02
2022-10-11T10:02:28.636Z,55.12
2022-10-11T10:05:08.423Z,55.35
2022-10-11T10:07:43.608Z,52.99
2022-10-11T10:10:33.911Z,53.98
2022-10-11T10:13:09.763Z,53.26
2022-10-11T10:15:48.889Z,53.10
2022-10-11T10:18:30.043Z,52.35
2022-10-11T10:21:01.885Z,51.01
2022-10-11T10:23:35.860Z,50.99
2022-10-11T11:00:15.770Z,49.76
2022-10-11T11:02:53.030Z,49.83
2022-10-11T11:05:42.362Z,49.25
2022-10-11T11:08:21.796Z,48.51
2022-10-11T11:11:02.253Z,47.50
2022-10-11T11:13:46.303Z,46.61
2022-10-11T11:16:28.638Z,47.82
2022-10-11T11:19:04.701Z,47.69
2022-10-11T11:21:41.906Z,47.18
2022-10-11T11:24:20.046Z,45.64
2022-10-11T11:26:54.039Z,48.25
2022-10-11T11:29:35.966Z,47.41
2022-10-11T11:32:15.074Z,47.51
2022-10-11T11:34:47.794Z,47.20
2022-10-11T11:37:25.228Z,47.07
2022-10-11T11:39:58.807Z,47.57
2022-10-11T11:42:35.444Z,48.25
2022-10-11T11:45:07.728Z,47.26
2022-10-11T11:47:48.289Z,45.63
2022-10-11T11:50:23.111Z,45.57
2022-10-11T11:52:55.609Z,46.21
2022-10-11T11:55:31.235Z,47.42
2022-10-11T11:58:09.045Z,46.83
2022-10-11T12:00:53.969Z,47.23
2022-10-11T12:03:28.231Z,47.95
2022-10-11T12:06:20.218Z,47.99
2022-10-11T12:08:50.913Z,48.34
2022-10-11T12:11:22.632Z,46.54
2022-10-11T12:13:53.068Z,47.20
2022-10-11T12:16:24.581Z,47.17
2022-10-11T12:19:02.221Z,47.25
2022-10-11T12:21:34.120Z,45.47
2022-10-11T12:24:10.554Z,46.40
2022-10-11T12:26:41.958Z,46.38
2022-10-11T12:29:42.656Z,46.68
2022-10-11T12:32:52.694Z,46.94
2022-10-11T12:35:57.419Z,46.67
2022-10-11T12:38:29.659Z,45.89
2022-10-11T12:41:01.205Z,46.22
2022-10-11T12:44:14.650Z,45.54
2022-10-11T12:47:07.499Z,46.58
2022-10-11T12:49:56.812Z,46.65
2022-10-11T12:52:32.543Z,47.29
2022-10-11T12:55:14.746Z,46.31
2022-10-11T12:58:24.346Z,46.24
2022-10-11T13:01:19.996Z,46.28
2022-10-11T13:04:02.302Z,46.26
2022-10-11T13:15:04.906Z,45.57
2022-10-11T13:17:38.595Z,45.69
2022-10-11T13:20:17.483Z,45.17
2022-10-11T13:22:54.244Z,45.75
2022-10-11T13:25:26.255Z,44.90
2022-10-11T13:27:59.412Z,45.45
2022-10-11T13:30:31.102Z,45.39
2022-10-11T13:33:05.085Z,45.63
2022-10-11T13:35:39.993Z,44.67
2022-10-11T13:38:13.267Z,45.07
2022-10-11T13:40:50.882Z,44.48
2022-10-11T13:43:27.669Z,46.72
2022-10-11T13:46:00.025Z,45.17
2022-10-11T13:48:34.828Z,43.64
2022-10-11T13:51:19.463Z,45.65
2022-10-11T13:54:13.829Z,45.41
2022-10-11T13:56:51.797Z,45.06
2022-10-11T14:44:46.331Z,45.58
2022-10-11T14:47:17.435Z,46.26
2022-10-11T14:49:52.104Z,45.06
2022-10-11T14:52:20.450Z,45.04
2022-10-11T14:54:51.697Z,45.15
2022-10-11T14:57:19.825Z,45.49
2022-10-11T14:59:49.091Z,44.80
2022-10-11T15:02:21.483Z,45.13
2022-10-11T15:04:52.964Z,44.74
2022-10-11T15:07:27.142Z,47.65
2022-10-11T15:10:01.138Z,45.34
2022-10-11T15:12:36.849Z,44.88
2022-10-11T15:15:16.766Z,44.24
2022-10-11T15:17:54.202Z,43.95
2022-10-11T15:20:27.247Z,43.87
2022-10-11T15:22:56.364Z,44.06
2022-10-11T15:33:32.282Z,43.87
2022-10-11T15:36:02.903Z,44.33
2022-10-11T15:54:34.693Z,45.43
2022-10-11T15:57:04.317Z,45.69
2022-10-11T15:59:32.487Z,45.42
2022-10-11T16:02:00.262Z,45.41
2022-10-11T16:04:28.559Z,45.26
2022-10-11T16:06:57.429Z,45.62
2022-10-11T16:09:25.121Z,45.92
2022-10-11T16:11:53.286Z,46.11
2022-10-11T16:14:22.903Z,46.51
2022-10-11T16:16:52.495Z,46.94
2022-10-11T16:19:22.860Z,47.92
2022-10-11T16:21:54.778Z,48.41
2022-10-11T16:24:27.320Z,49.08
2022-10-11T16:27:00.039Z,49.33
2022-10-11T16:29:35.680Z,49.92
2022-10-11T16:32:03.451Z,50.15
2022-10-11T16:34:33.647Z,50.40
2022-10-11T16:37:05.410Z,50.74
2022-10-11T16:39:37.600Z,51.03
2022-10-11T16:42:09.500Z,51.17
2022-10-11T16:44:42.263Z,51.33
2022-10-11T16:47:10.627Z,51.47
2022-10-11T16:49:39.031Z,51.77
2022-10-11T16:52:11.296Z,51.88
2022-10-11T16:54:41.044Z,51.91
2022-10-11T16:57:11.151Z,52.23
2022-10-11T16:59:44.880Z,52.07
2022-10-11T17:02:17.473Z,52.34
2022-10-11T17:04:46.066Z,51.84
2022-10-11T17:07:14.867Z,52.47
2022-10-11T17:09:44.540Z,52.48
2022-10-11T17:12:14.182Z,52.43
2022-10-11T17:14:44.673Z,52.45
2022-10-11T17:17:13.000Z,52.92
2022-10-11T17:19:45.412Z,53.01
2022-10-11T17:22:15.754Z,52.79
2022-10-11T17:24:43.664Z,53.11
2022-10-11T17:27:11.990Z,52.96
2022-10-11T17:29:40.091Z,53.10
2022-10-11T17:32:09.983Z,53.44
2022-10-11T17:34:38.262Z,53.29
2022-10-11T17:37:11.655Z,53.15
2022-10-11T17:39:40.870Z,53.68
2022-10-11T17:42:10.444Z,53.18
2022-10-11T17:44:40.493Z,53.63
2022-10-11T17:47:15.199Z,53.79
2022-10-11T17:49:43.140Z,53.76
2022-10-11T17:52:12.238Z,53.92
2022-10-11T17:54:41.142Z,53.77
2022-10-11T17:57:10.768Z,54.06
2022-10-11T17:59:39.034Z,53.79
2022-10-11T18:02:08.909Z,53.95
2022-10-11T18:04:39.118Z,54.14
2022-10-11T18:07:07.591Z,54.12
2022-10-11T18:09:37.701Z,54.06
2022-10-11T18:12:07.410Z,54.20
2022-10-11T18:14:35.718Z,53.88
2022-10-11T18:17:03.589Z,54.44
2022-10-11T18:19:31.723Z,53.92
2022-10-11T18:22:06.774Z,54.38
2022-10-11T18:24:35.643Z,53.99
2022-10-11T18:27:03.529Z,54.62
2022-10-11T18:29:31.829Z,54.68
2022-10-11T18:31:59.524Z,54.50
2022-10-11T18:34:30.824Z,54.75
2022-10-11T18:37:00.927Z,54.69
2022-10-11T18:39:31.094Z,54.42
2022-10-11T18:41:59.599Z,54.55
2022-10-11T18:44:27.875Z,54.28
2022-10-11T18:46:55.527Z,53.90
2022-10-11T18:49:23.638Z,54.34
2022-10-11T18:51:51.461Z,54.25
2022-10-11T18:54:21.506Z,53.89
2022-10-11T18:56:50.162Z,53.96
2022-10-11T18:59:17.908Z,54.25
2022-10-11T19:01:46.630Z,54.87
2022-10-11T19:04:16.716Z,54.88
2022-10-11T19:06:48.315Z,54.75
2022-10-11T19:09:22.344Z,54.29
2022-10-11T19:11:53.370Z,54.93
2022-10-11T19:14:26.634Z,54.81
2022-10-11T19:16:55.930Z,54.75
2022-10-11T19:19:25.193Z,54.69
2022-10-11T19:21:56.576Z,54.18
2022-10-11T19:24:27.375Z,54.33
2022-10-11T19:27:02.622Z,54.52
2022-10-11T19:29:32.696Z,54.12
2022-10-11T19:32:03.497Z,54.47
2022-10-11T19:34:32.640Z,54.55
2022-10-11T19:37:01.677Z,54.22
2022-10-11T19:39:30.000Z,54.43
2022-10-11T19:42:00.966Z,54.63
2022-10-11T19:44:28.917Z,54.83
2022-10-11T19:47:04.953Z,54.78
2022-10-11T19:49:33.122Z,54.82
2022-10-11T19:52:01.811Z,54.77
2022-10-11T19:54:31.936Z,54.49
2022-10-11T19:57:02.236Z,55.01
2022-10-11T19:59:29.945Z,54.66
2022-10-11T20:01:58.187Z,54.50
2022-10-11T20:07:13.948Z,55.13
2022-10-11T20:09:41.747Z,54.78
2022-10-11T20:12:11.520Z,55.10
2022-10-11T20:14:39.211Z,55.17
2022-10-11T20:17:07.426Z,54.63
2022-10-11T20:19:35.167Z,54.69
2022-10-11T20:22:03.069Z,54.52
2022-10-11T20:24:33.901Z,54.75
2022-10-11T20:27:02.728Z,54.66
2022-10-11T20:29:32.591Z,54.48
2022-10-11T20:32:00.279Z,54.98
2022-10-11T20:34:29.222Z,54.76
2022-10-11T20:36:56.961Z,54.87
2022-10-11T20:39:25.298Z,55.16
2022-10-11T20:41:53.798Z,54.53
2022-10-11T20:44:21.502Z,54.89
2022-10-11T20:46:51.085Z,54.44
2022-10-11T20:49:19.869Z,54.82
2022-10-11T20:51:48.158Z,54.61
2022-10-11T20:54:16.336Z,54.88
2022-10-11T20:56:44.085Z,54.56
2022-10-11T20:59:11.808Z,54.91
2022-10-11T21:01:41.204Z,55.70
2022-10-11T21:04:20.142Z,55.49
2022-10-11T21:06:48.845Z,55.55
2022-10-11T21:09:17.097Z,55.34
2022-10-11T21:11:45.721Z,55.36
2022-10-11T21:14:13.422Z,55.48
2022-10-11T21:16:41.587Z,55.48
2022-10-11T21:19:14.983Z,55.24
2022-10-11T21:21:43.764Z,55.13
2022-10-11T21:24:11.512Z,55.44
2022-10-11T21:26:39.194Z,55.48
2022-10-11T21:29:07.913Z,55.45
2022-10-11T21:31:35.660Z,55.45
2022-10-11T21:34:05.519Z,55.27
2022-10-11T21:36:34.591Z,55.70
2022-10-11T21:39:02.815Z,55.53
2022-10-11T21:41:30.829Z,55.99
2022-10-11T21:43:58.953Z,55.49
2022-10-11T21:46:54.121Z,55.79
2022-10-11T21:49:17.614Z,55.58
2022-10-11T21:51:47.336Z,55.32
2022-10-11T21:54:15.448Z,55.67
2022-10-11T21:56:43.904Z,55.64
2022-10-11T21:59:12.611Z,55.83
2022-10-11T22:01:41.270Z,55.76
2022-10-11T22:04:09.578Z,55.50
2022-10-11T22:06:38.474Z,55.73
2022-10-11T22:09:08.837Z,55.69
2022-10-11T22:11:37.069Z,55.27
2022-10-11T22:14:05.320Z,55.48
2022-10-11T22:16:34.442Z,55.67
2022-10-11T22:19:02.790Z,55.60
2022-10-11T22:21:30.543Z,55.74
2022-10-11T22:23:58.247Z,56.01
2022-10-11T22:26:30.473Z,55.83
2022-10-11T22:28:58.574Z,56.11
2022-10-11T22:31:26.710Z,56.05
2022-10-11T22:33:55.646Z,56.25
2022-10-11T22:36:24.640Z,56.53
2022-10-11T22:38:53.238Z,56.27
2022-10-11T22:41:21.092Z,56.41
2022-10-11T22:43:50.716Z,56.33
2022-10-11T22:46:18.505Z,55.81
2022-10-11T22:48:46.619Z,55.86
2022-10-11T22:51:21.714Z,55.79
2022-10-11T22:53:49.882Z,55.73
2022-10-11T22:56:17.583Z,55.83
2022-10-11T22:58:45.449Z,56.00
2022-10-11T23:01:17.250Z,55.86
2022-10-11T23:03:48.191Z,55.71
2022-10-11T23:06:16.374Z,55.87
2022-10-11T23:08:44.407Z,56.19
2022-10-11T23:11:12.518Z,56.31
2022-10-11T23:13:40.968Z,56.13
2022-10-11T23:16:10.081Z,55.86
2022-10-11T23:18:39.926Z,56.30
2022-10-11T23:21:08.499Z,56.38
2022-10-11T23:23:36.240Z,56.37
2022-10-11T23:26:07.494Z,56.68
2022-10-11T23:28:37.428Z,56.15
2022-10-11T23:31:10.896Z,56.37
2022-10-11T23:33:40.173Z,56.55
2022-10-11T23:36:15.382Z,56.35
2022-10-11T23:38:43.057Z,56.29
2022-10-11T23:41:10.761Z,56.13
2022-10-11T23:43:38.956Z,56.07
2022-10-11T23:46:06.698Z,56.11
2022-10-11T23:48:34.758Z,56.11
2022-10-11T23:51:03.794Z,56.32
2022-10-11T23:53:31.968Z,56.28
2022-10-11T23:55:59.663Z,56.01
2022-10-11T23:58:27.410Z,56.06
